createdAt,value
2022-11-30T00:00:46.852Z,9.3
2022-11-30T00:05:52.934Z,9.3
2022-11-30T00:10:58.987Z,9.5
2022-11-30T00:21:12.957Z,9.4
2022-11-30T00:26:18.998Z,9.4
2022-11-30T00:31:25.108Z,9.4
2022-11-30T00:36:31.139Z,9.5
2022-11-30T00:41:37.147Z,9.3
2022-11-30T00:46:43.198Z,9.3
2022-11-30T00:51:49.300Z,9.3
2022-11-30T00:56:55.299Z,9.3
2022-11-30T01:02:01.419Z,9.2
2022-11-30T01:07:07.454Z,9.2
2022-11-30T01:12:13.476Z,9.4
2022-11-30T01:17:19.539Z,9.4
2022-11-30T01:22:25.611Z,9.4
2022-11-30T01:27:31.656Z,9.2
2022-11-30T01:32:37.676Z,9.2
2022-11-30T01:37:43.760Z,9.3
2022-11-30T01:42:49.827Z,9.3
2022-11-30T01:47:55.883Z,9.2
2022-11-30T01:53:01.921Z,9.2
2022-11-30T01:58:07.916Z,9.2
2022-11-30T02:03:14.010Z,9.4
2022-11-30T02:08:20.258Z,9.4
2022-11-30T02:13:26.115Z,9.4
2022-11-30T02:18:32.158Z,9.2
2022-11-30T02:23:41.587Z,9.2
2022-11-30T02:28:44.235Z,9.2
2022-11-30T02:33:50.309Z,9.3
2022-11-30T02:38:56.390Z,9.3
2022-11-30T02:44:02.418Z,9.2
2022-11-30T02:49:08.463Z,9.2
2022-11-30T02:54:14.545Z,9.2
2022-11-30T02:59:20.574Z,9.2
2022-11-30T03:04:26.612Z,9.2
2022-11-30T03:09:32.698Z,9.2
2022-11-30T03:14:38.727Z,9.2
2022-11-30T03:19:44.796Z,9.2
2022-11-30T03:24:50.887Z,9.2
2022-11-30T03:29:56.901Z,9.2
2022-11-30T03:35:02.954Z,9.2
2022-11-30T03:40:09.019Z,9.2
2022-11-30T03:45:15.056Z,9.2
2022-11-30T03:50:21.089Z,9.2
2022-11-30T03:55:27.177Z,9.2
2022-11-30T04:00:33.211Z,9.2
2022-11-30T04:05:39.238Z,9.2
2022-11-30T04:10:45.357Z,9.2
2022-11-30T04:15:51.428Z,9.2
2022-11-30T04:20:57.429Z,9.2
2022-11-30T04:26:03.554Z,9.2
2022-11-30T04:31:09.613Z,9.2
2022-11-30T04:36:15.585Z,9.2
2022-11-30T04:41:21.652Z,9.2
2022-11-30T04:46:27.729Z,9.2
2022-11-30T04:51:33.725Z,9.2
2022-11-30T04:56:39.837Z,9.2
2022-11-30T05:01:45.913Z,9.2
2022-11-30T05:06:51.913Z,9.2
2022-11-30T05:11:57.973Z,9.2
2022-11-30T05:17:04.031Z,9.2
2022-11-30T05:22:10.065Z,9.2
2022-11-30T05:27:22.229Z,9.5
2022-11-30T05:32:22.155Z,9.3
2022-11-30T05:37:28.221Z,9.2
2022-11-30T05:42:34.279Z,9.2
2022-11-30T05:47:40.321Z,9.3
2022-11-30T05:52:46.369Z,9.4
2022-11-30T05:57:52.449Z,9.4
2022-11-30T06:02:58.748Z,9.5
2022-11-30T06:08:04.546Z,9.6
2022-11-30T06:13:10.605Z,9.6
2022-11-30T06:18:16.658Z,9.9
2022-11-30T06:23:22.712Z,9.9
2022-11-30T06:28:28.767Z,9.9
2022-11-30T06:33:34.820Z,9.8
2022-11-30T06:38:40.832Z,9.8
2022-11-30T06:43:46.928Z,9.9
2022-11-30T06:48:52.955Z,9.9
2022-11-30T06:53:59.043Z,9.9
2022-11-30T06:59:05.085Z,9.9
2022-11-30T07:04:11.110Z,9.9
2022-11-30T07:09:17.161Z,9.9
2022-11-30T07:14:23.235Z,9.9
2022-11-30T07:19:29.260Z,9.9
2022-11-30T07:24:35.307Z,9.9
2022-11-30T07:29:41.385Z,10
2022-11-30T07:34:47.771Z,10
2022-11-30T07:39:54.583Z,10
2022-11-30T07:45:00.854Z,10
2022-11-30T07:50:06.690Z,10
2022-11-30T07:55:12.752Z,9.9
2022-11-30T08:00:19.947Z,9.9
2022-11-30T08:05:25.967Z,9.9
2022-11-30T08:10:33.132Z,9.9
2022-11-30T08:15:39.213Z,9.9
2022-11-30T08:20:49.844Z,9.9
2022-11-30T08:25:51.310Z,9.9
2022-11-30T08:30:58.604Z,10
2022-11-30T08:36:04.546Z,10
2022-11-30T08:41:10.615Z,10
2022-11-30T08:46:49.016Z,10
2022-11-30T08:51:22.710Z,10.1
2022-11-30T08:56:28.744Z,10.1
2022-11-30T09:01:34.804Z,10.1
2022-11-30T09:06:40.833Z,10.1
2022-11-30T09:11:46.900Z,10.1
2022-11-30T09:16:52.972Z,10.1
2022-11-30T09:21:59.041Z,10.1
2022-11-30T09:27:05.059Z,10.1
2022-11-30T09:32:11.159Z,10.2
2022-11-30T09:37:17.202Z,10.2
2022-11-30T09:42:23.232Z,10.2
2022-11-30T09:47:32.106Z,10.2
2022-11-30T09:52:35.422Z,10.2
2022-11-30T09:57:41.390Z,10.3
2022-11-30T10:02:47.590Z,10.3
2022-11-30T10:07:53.537Z,10.1
2022-11-30T10:12:59.548Z,10.1
2022-11-30T10:18:05.623Z,10.1
2022-11-30T10:23:11.654Z,10.1
2022-11-30T10:28:45.511Z,10.1
2022-11-30T10:33:23.794Z,10.2
2022-11-30T10:38:29.806Z,10.2
2022-11-30T10:43:35.857Z,10.2
2022-11-30T10:48:41.949Z,10.2
2022-11-30T10:53:47.976Z,10.3
2022-11-30T10:58:54.030Z,10.3
2022-11-30T11:04:00.244Z,10.3
2022-11-30T11:09:06.357Z,10.3
2022-11-30T11:14:12.179Z,10.3
2022-11-30T11:19:18.250Z,10.3
2022-11-30T11:24:24.265Z,10.3
2022-11-30T11:29:30.320Z,10.3
2022-11-30T11:34:36.425Z,10.3
2022-11-30T11:39:42.431Z,10.3
2022-11-30T11:44:48.489Z,10.3
2022-11-30T11:49:54.583Z,10.3
2022-11-30T11:55:00.588Z,10.4
2022-11-30T12:00:12.517Z,10.4
2022-11-30T12:05:12.729Z,10.4
2022-11-30T12:10:50.018Z,10.4
2022-11-30T12:15:24.805Z,10.4
2022-11-30T12:20:30.887Z,10.4
2022-11-30T12:25:36.926Z,10.4
2022-11-30T12:30:42.974Z,10.4
2022-11-30T12:35:49.047Z,10.4
2022-11-30T12:40:55.070Z,10.4
2022-11-30T12:46:01.129Z,10.5
2022-11-30T12:51:07.197Z,10.5
2022-11-30T12:56:13.211Z,10.5
2022-11-30T13:01:19.323Z,10.5
2022-11-30T13:06:25.392Z,10.5
2022-11-30T13:11:31.393Z,10.5
2022-11-30T13:16:37.575Z,10.5
2022-11-30T13:21:43.533Z,10.5
2022-11-30T13:26:49.547Z,10.5
2022-11-30T13:31:55.682Z,10.5
2022-11-30T13:37:01.698Z,10.5
2022-11-30T13:42:07.707Z,10.5
2022-11-30T13:47:13.769Z,10.5
2022-11-30T13:52:23.263Z,10.5
2022-11-30T13:57:25.856Z,10.6
2022-11-30T14:02:31.910Z,10.6
2022-11-30T14:07:38.115Z,10.3
2022-11-30T14:12:44.044Z,10.3
2022-11-30T14:17:50.060Z,10.5
2022-11-30T14:22:56.144Z,10.4
2022-11-30T14:28:02.180Z,10.3
2022-11-30T14:33:08.228Z,10.3
2022-11-30T14:38:14.310Z,10.2
2022-11-30T14:43:20.331Z,10.2
2022-11-30T14:48:26.408Z,10.1
2022-11-30T14:53:32.472Z,10.1
2022-11-30T14:58:38.496Z,10.2
2022-11-30T15:03:44.572Z,10.2
2022-11-30T15:08:50.627Z,10.1
2022-11-30T15:13:56.662Z,10.1
2022-11-30T15:19:02.715Z,10
2022-11-30T15:24:08.948Z,10
2022-11-30T15:29:14.812Z,9.9
2022-11-30T15:34:20.850Z,10
2022-11-30T15:39:26.953Z,9.9
2022-11-30T15:44:32.976Z,9.9
2022-11-30T15:49:39.042Z,9.9
2022-11-30T15:54:45.089Z,9.9
2022-11-30T15:59:51.128Z,9.9
2022-11-30T16:04:57.184Z,9.9
2022-11-30T16:10:03.254Z,9.9
2022-11-30T16:15:09.310Z,9.9
2022-11-30T16:20:15.349Z,9.8
2022-11-30T16:25:21.494Z,9.8
2022-11-30T16:35:35.368Z,9.8
2022-11-30T16:40:41.448Z,9.8
2022-11-30T16:45:47.513Z,9.8
2022-11-30T16:50:53.517Z,9.8
2022-11-30T16:55:59.607Z,9.8
2022-11-30T17:01:05.819Z,9.8
2022-11-30T17:06:11.683Z,9.7
2022-11-30T17:11:17.758Z,9.7
2022-11-30T17:16:23.874Z,9.7
2022-11-30T17:21:29.849Z,9.7
2022-11-30T17:26:35.961Z,9.7
2022-11-30T17:31:41.953Z,9.7
2022-11-30T17:36:48.028Z,9.7
2022-11-30T17:41:54.076Z,9.7
2022-11-30T17:47:00.128Z,9.7
2022-11-30T17:52:06.181Z,9.6
2022-11-30T17:57:13.462Z,9.7
2022-11-30T18:02:19.455Z,9.7
2022-11-30T18:07:26.674Z,9.7
2022-11-30T18:12:32.632Z,9.7
2022-11-30T18:17:38.659Z,9.7
2022-11-30T18:22:44.726Z,9.6
2022-11-30T18:27:50.847Z,9.6
2022-11-30T18:32:56.834Z,9.6
2022-11-30T18:38:02.884Z,9.6
2022-11-30T18:43:08.983Z,9.6
2022-11-30T18:48:14.991Z,9.6
2022-11-30T18:53:21.033Z,9.6
2022-11-30T18:58:27.152Z,9.6
2022-11-30T19:03:33.136Z,9.6
2022-11-30T19:08:39.202Z,9.6
2022-11-30T19:13:45.285Z,9.6
2022-11-30T19:18:51.298Z,9.5
2022-11-30T19:23:57.359Z,9.5
2022-11-30T19:29:03.453Z,9.5
2022-11-30T19:34:13.084Z,9.6
2022-11-30T19:39:15.498Z,9.6
2022-11-30T19:44:21.609Z,9.6
2022-11-30T19:54:35.568Z,9.5
2022-11-30T19:59:41.639Z,9.5
2022-11-30T20:04:47.919Z,9.5
2022-11-30T20:09:53.713Z,9.5
2022-11-30T20:14:59.796Z,9.5
2022-11-30T20:20:05.819Z,9.5
2022-11-30T20:25:11.922Z,9.5
2022-11-30T20:30:18.053Z,9.5
2022-11-30T20:35:23.988Z,9.3
2022-11-30T20:40:30.029Z,9.5
2022-11-30T20:45:36.124Z,9.5
2022-11-30T20:50:42.184Z,9.5
2022-11-30T20:55:50.582Z,9.5
2022-11-30T21:00:54.272Z,9.5
2022-11-30T21:06:00.301Z,9.3
2022-11-30T21:11:06.356Z,9.3
2022-11-30T21:16:12.461Z,9.3
2022-11-30T21:21:18.477Z,9.3
2022-11-30T21:26:24.531Z,9.2
2022-11-30T21:31:30.626Z,9.2
2022-11-30T21:36:36.595Z,9.4
2022-11-30T21:41:42.676Z,9.2
2022-11-30T21:46:48.844Z,9.2
2022-11-30T21:51:54.770Z,9.3
2022-11-30T21:57:00.822Z,9.3
2022-11-30T22:02:07.069Z,9.3
2022-11-30T22:07:12.930Z,9.2
2022-11-30T22:12:18.969Z,9.2
2022-11-30T22:17:25.056Z,9.2
2022-11-30T22:22:31.083Z,9.2
2022-11-30T22:27:37.149Z,9.2
2022-11-30T22:32:43.707Z,9.2
2022-11-30T22:37:49.277Z,9.2
2022-11-30T22:42:55.329Z,9.2
2022-11-30T22:48:01.408Z,9.2
2022-11-30T22:53:07.401Z,9.2
2022-11-30T22:58:13.476Z,9.2
2022-11-30T23:03:19.691Z,9.2
2022-11-30T23:08:25.570Z,9.2
2022-11-30T23:13:31.630Z,9.2
2022-11-30T23:18:37.719Z,9.2
2022-11-30T23:23:43.725Z,9.2
2022-11-30T23:28:49.766Z,9.2
2022-11-30T23:33:55.879Z,9.2
2022-11-30T23:39:01.907Z,9.2
2022-11-30T23:44:07.945Z,9.2
2022-11-30T23:49:14.043Z,9.2
2022-11-30T23:54:20.041Z,9.2
2022-11-30T23:59:26.104Z,9.2
